Time;durP1;ratioP1;P1;durP2;ratioP2;P2;SDS_P1;SDS_P2;PMS_P1;PMS_P2;Temp;Humidity;BMP_temperature;BMP_pressure;BME280_temperature;BME280_humidity;BME280_pressure;Samples;Min_cycle;Max_cycle;Signal;HPM_P1;HPM_P2
2022/05/18 00:01:10;;;;;;;34.40;19.90;;;;;;;;;;5030825;28;20052;-67
2022/05/18 00:03:38;;;;;;;45.08;20.23;;;;;;;;;;5040908;28;20070;-67
2022/05/18 00:06:05;;;;;;;39.63;20.58;;;;;;;;;;5049536;28;20063;-67
2022/05/18 00:08:37;;;;;;;42.88;21.95;;;;;;;;;;5051511;28;20120;-67
2022/05/18 00:11:11;;;;;;;39.67;21.27;;;;;;;;;;5047623;28;20033;-68
2022/05/18 00:13:38;;;;;;;37.03;19.25;;;;;;;;;;5050478;28;20076;-67
2022/05/18 00:16:05;;;;;;;36.72;19.88;;;;;;;;;;5050591;28;20021;-67
2022/05/18 00:18:31;;;;;;;35.58;20.60;;;;;;;;;;5050388;28;20049;-67
2022/05/18 00:20:59;;;;;;;39.33;19.60;;;;;;;;;;5050341;28;20040;-67
2022/05/18 00:23:25;;;;;;;39.78;19.88;;;;;;;;;;5052248;28;20035;-68
2022/05/18 00:25:51;;;;;;;36.03;20.88;;;;;;;;;;5050607;28;20024;-68
2022/05/18 00:28:17;;;;;;;38.28;20.10;;;;;;;;;;5046710;28;20033;-67
2022/05/18 00:30:43;;;;;;;39.88;20.77;;;;;;;;;;5050434;28;20025;-68
2022/05/18 00:33:10;;;;;;;34.70;21.23;;;;;;;;;;5050676;28;20029;-67
2022/05/18 00:35:37;;;;;;;44.83;21.65;;;;;;;;;;5052227;28;20350;-68
2022/05/18 00:38:04;;;;;;;30.98;19.73;;;;;;;;;;5050876;28;20453;-68
2022/05/18 00:40:31;;;;;;;37.42;20.13;;;;;;;;;;5046580;28;20064;-68
2022/05/18 00:42:57;;;;;;;34.70;19.30;;;;;;;;;;5046641;28;20025;-68
2022/05/18 00:45:23;;;;;;;33.70;20.13;;;;;;;;;;5050861;28;20036;-68
2022/05/18 00:47:49;;;;;;;37.75;19.60;;;;;;;;;;5051801;28;20059;-68
2022/05/18 00:50:21;;;;;;;43.70;19.13;;;;;;;;;;5053494;28;20064;-68
2022/05/18 00:52:50;;;;;;;36.10;19.67;;;;;;;;;;5050658;28;20021;-69
2022/05/18 00:55:19;;;;;;;33.92;19.92;;;;;;;;;;5050535;28;20106;-68
2022/05/18 00:57:48;;;;;;;40.80;20.63;;;;;;;;;;5050146;28;20025;-68
2022/05/18 01:00:16;;;;;;;48.28;21.75;;;;;;;;;;5050859;28;20040;-68
2022/05/18 01:02:45;;;;;;;46.78;23.05;;;;;;;;;;5051004;28;20025;-68
2022/05/18 01:05:15;;;;;;;36.15;24.77;;;;;;;;;;5051678;28;20032;-68
2022/05/18 01:07:44;;;;;;;47.35;25.02;;;;;;;;;;5054001;28;20025;-68
2022/05/18 01:10:10;;;;;;;41.13;26.70;;;;;;;;;;5049684;28;20033;-68
2022/05/18 01:12:37;;;;;;;41.65;25.77;;;;;;;;;;5050614;28;20071;-69
2022/05/18 01:15:08;;;;;;;39.13;21.80;;;;;;;;;;5050464;28;20041;-69
2022/05/18 01:17:39;;;;;;;39.67;20.75;;;;;;;;;;5051060;28;20041;-69
2022/05/18 01:20:07;;;;;;;37.25;21.17;;;;;;;;;;5050579;28;20524;-69
2022/05/18 01:22:57;;;;;;;39.40;21.83;;;;;;;;;;5054453;28;20036;-69
2022/05/18 01:25:36;;;;;;;37.22;20.52;;;;;;;;;;5050526;28;20040;-68
2022/05/18 01:28:03;;;;;;;35.97;21.90;;;;;;;;;;5052233;28;20045;-68
2022/05/18 01:30:30;;;;;;;40.90;22.55;;;;;;;;;;5053738;28;20029;-68
2022/05/18 01:33:00;;;;;;;45.50;22.05;;;;;;;;;;5054170;28;20041;-69
2022/05/18 01:35:28;;;;;;;46.35;22.35;;;;;;;;;;5055622;28;20488;-67
2022/05/18 01:37:57;;;;;;;46.83;22.98;;;;;;;;;;5052746;28;20044;-67
2022/05/18 01:40:42;;;;;;;48.63;23.08;;;;;;;;;;5053809;28;20033;-66
2022/05/18 01:43:14;;;;;;;45.88;23.20;;;;;;;;;;5053865;28;20037;-67
2022/05/18 01:45:40;;;;;;;44.65;22.95;;;;;;;;;;5053415;28;20082;-67
2022/05/18 01:48:08;;;;;;;47.53;23.17;;;;;;;;;;5053237;28;20052;-67
2022/05/18 01:50:34;;;;;;;45.35;23.08;;;;;;;;;;5054670;28;20017;-67
2022/05/18 01:53:00;;;;;;;40.58;22.58;;;;;;;;;;5053217;28;20091;-67
2022/05/18 01:55:26;;;;;;;45.47;23.30;;;;;;;;;;5057455;28;20358;-67
2022/05/18 01:57:52;;;;;;;44.85;23.23;;;;;;;;;;5053584;28;20103;-67
2022/05/18 02:00:19;;;;;;;37.88;23.15;;;;;;;;;;5056683;28;20514;-67
2022/05/18 02:02:45;;;;;;;44.67;23.58;;;;;;;;;;5052272;28;20021;-67
2022/05/18 02:05:12;;;;;;;40.72;23.65;;;;;;;;;;5054274;28;20142;-67
2022/05/18 02:07:38;;;;;;;45.03;23.35;;;;;;;;;;5052700;28;20035;-67
2022/05/18 02:10:05;;;;;;;50.25;24.40;;;;;;;;;;5052879;28;20032;-67
2022/05/18 02:12:31;;;;;;;40.70;22.50;;;;;;;;;;5054483;28;20024;-67
2022/05/18 02:14:57;;;;;;;40.65;21.63;;;;;;;;;;5053204;28;22303;-67
2022/05/18 02:17:24;;;;;;;43.30;20.92;;;;;;;;;;5054221;28;20032;-67
2022/05/18 02:19:50;;;;;;;39.50;21.40;;;;;;;;;;5052569;28;20044;-67
2022/05/18 02:22:16;;;;;;;42.30;21.67;;;;;;;;;;5051987;28;20033;-67
2022/05/18 02:24:42;;;;;;;41.45;22.23;;;;;;;;;;5056826;28;20029;-67
2022/05/18 02:27:08;;;;;;;45.47;21.60;;;;;;;;;;5052833;28;20455;-67
2022/05/18 02:29:35;;;;;;;39.53;23.58;;;;;;;;;;5054477;28;20087;-67
2022/05/18 02:32:01;;;;;;;40.38;23.13;;;;;;;;;;5052774;28;20037;-67
2022/05/18 02:34:30;;;;;;;39.33;22.60;;;;;;;;;;5055649;28;20039;-68
2022/05/18 02:36:56;;;;;;;39.60;20.98;;;;;;;;;;5057119;28;20039;-68
2022/05/18 02:39:22;;;;;;;44.90;22.92;;;;;;;;;;5052639;28;20036;-68
2022/05/18 02:41:49;;;;;;;42.30;22.27;;;;;;;;;;5052824;28;20082;-68
2022/05/18 02:44:16;;;;;;;37.15;21.15;;;;;;;;;;5053781;28;20029;-68
2022/05/18 02:46:42;;;;;;;42.33;22.02;;;;;;;;;;5052257;28;20029;-68
2022/05/18 02:49:08;;;;;;;43.08;22.88;;;;;;;;;;5052169;28;20040;-68
2022/05/18 02:51:35;;;;;;;48.05;21.58;;;;;;;;;;5052134;28;20179;-68
2022/05/18 02:56:05;;;;;;;38.70;21.42;;;;;;;;;;5052171;28;20108;-68
2022/05/18 02:56:47;;;;;;;38.28;22.45;;;;;;;;;;5052288;28;20039;-68
2022/05/18 02:59:13;;;;;;;43.53;23.08;;;;;;;;;;5053034;28;20039;-68
2022/05/18 03:01:39;;;;;;;46.72;23.33;;;;;;;;;;5052369;28;20099;-68
2022/05/18 03:04:05;;;;;;;50.10;24.10;;;;;;;;;;5054912;28;20057;-68
2022/05/18 03:06:31;;;;;;;51.90;24.25;;;;;;;;;;5051024;28;20032;-68
2022/05/18 03:08:58;;;;;;;45.85;24.35;;;;;;;;;;5052075;28;20045;-68
2022/05/18 03:11:24;;;;;;;43.30;25.13;;;;;;;;;;5053409;28;20103;-68
2022/05/18 03:13:50;;;;;;;43.72;26.08;;;;;;;;;;5054544;28;20045;-68
2022/05/18 03:16:17;;;;;;;45.47;23.38;;;;;;;;;;5056107;28;20036;-68
2022/05/18 03:18:43;;;;;;;42.17;24.33;;;;;;;;;;5050196;28;20037;-68
2022/05/18 03:23:54;;;;;;;43.15;24.27;;;;;;;;;;5052314;28;20531;-68
2022/05/18 03:26:21;;;;;;;41.83;23.35;;;;;;;;;;5053070;28;20095;-68
2022/05/18 03:28:48;;;;;;;41.55;23.63;;;;;;;;;;5051666;28;20144;-68
2022/05/18 03:31:16;;;;;;;45.55;23.75;;;;;;;;;;5051847;28;20042;-68
2022/05/18 03:33:43;;;;;;;38.80;23.15;;;;;;;;;;5051657;28;20052;-68
2022/05/18 03:36:10;;;;;;;42.90;23.33;;;;;;;;;;5052185;28;20032;-67
2022/05/18 03:38:37;;;;;;;46.13;22.83;;;;;;;;;;5052389;28;20033;-67
2022/05/18 03:41:03;;;;;;;43.78;23.95;;;;;;;;;;5050432;28;20029;-67
2022/05/18 03:43:29;;;;;;;45.20;23.85;;;;;;;;;;5055212;28;20098;-67
2022/05/18 03:45:55;;;;;;;50.53;24.95;;;;;;;;;;5050955;28;20032;-67
2022/05/18 03:48:22;;;;;;;59.75;25.15;;;;;;;;;;5051447;28;20037;-67
2022/05/18 03:50:48;;;;;;;48.13;24.63;;;;;;;;;;5052410;28;20028;-67
2022/05/18 03:53:15;;;;;;;55.53;25.17;;;;;;;;;;5054929;28;20036;-67
2022/05/18 03:55:42;;;;;;;49.53;24.90;;;;;;;;;;5055241;28;20071;-67
2022/05/18 03:58:12;;;;;;;44.97;23.35;;;;;;;;;;5050062;28;20115;-67
2022/05/18 04:00:40;;;;;;;44.83;23.10;;;;;;;;;;5051233;28;20033;-67
2022/05/18 04:03:06;;;;;;;54.97;24.45;;;;;;;;;;5051471;28;20055;-67
2022/05/18 04:05:33;;;;;;;44.65;23.80;;;;;;;;;;5052894;28;20453;-67
2022/05/18 04:08:00;;;;;;;51.10;24.45;;;;;;;;;;5050952;28;20060;-69
2022/05/18 04:10:26;;;;;;;48.40;24.05;;;;;;;;;;5051073;28;20037;-67
2022/05/18 04:12:52;;;;;;;48.55;23.98;;;;;;;;;;5049486;28;20041;-67
2022/05/18 04:15:19;;;;;;;43.88;22.65;;;;;;;;;;5050945;28;20182;-67
2022/05/18 04:17:46;;;;;;;51.78;24.40;;;;;;;;;;5051138;28;20390;-67
2022/05/18 04:20:13;;;;;;;55.97;26.15;;;;;;;;;;5051984;28;20045;-67
2022/05/18 04:22:40;;;;;;;49.15;24.63;;;;;;;;;;5054846;28;20389;-67
2022/05/18 04:25:06;;;;;;;47.20;27.05;;;;;;;;;;5051053;28;20739;-67
2022/05/18 04:27:32;;;;;;;55.08;28.27;;;;;;;;;;5050618;28;20036;-67
2022/05/18 04:29:59;;;;;;;57.22;28.45;;;;;;;;;;5052140;28;20036;-67
2022/05/18 04:32:25;;;;;;;56.63;26.67;;;;;;;;;;5053166;28;20021;-67
2022/05/18 04:34:51;;;;;;;51.80;28.08;;;;;;;;;;5054399;28;20039;-67
2022/05/18 04:37:18;;;;;;;51.10;25.98;;;;;;;;;;5049488;28;20041;-67
2022/05/18 04:39:45;;;;;;;50.42;25.73;;;;;;;;;;5050207;28;20029;-67
2022/05/18 04:42:11;;;;;;;55.47;25.52;;;;;;;;;;5050756;28;20465;-67
2022/05/18 04:44:37;;;;;;;51.22;26.23;;;;;;;;;;5051716;28;20025;-67
2022/05/18 04:47:03;;;;;;;44.78;25.45;;;;;;;;;;5051163;28;20086;-67
2022/05/18 04:49:30;;;;;;;60.15;26.75;;;;;;;;;;5050639;28;20040;-67
2022/05/18 04:51:56;;;;;;;52.78;25.77;;;;;;;;;;5050086;28;20027;-67
2022/05/18 04:54:22;;;;;;;48.15;26.05;;;;;;;;;;5050858;28;20029;-67
2022/05/18 04:56:48;;;;;;;52.70;27.17;;;;;;;;;;5051136;28;20447;-67
2022/05/18 04:59:15;;;;;;;54.22;29.10;;;;;;;;;;5051433;28;20499;-67
2022/05/18 05:01:43;;;;;;;57.25;28.83;;;;;;;;;;5054007;28;20411;-68
2022/05/18 05:04:09;;;;;;;58.90;29.40;;;;;;;;;;5054419;28;20575;-70
2022/05/18 05:06:36;;;;;;;62.15;26.80;;;;;;;;;;5053332;28;20037;-68
2022/05/18 05:09:03;;;;;;;54.72;25.55;;;;;;;;;;5057661;28;20032;-69
2022/05/18 05:11:29;;;;;;;51.05;24.23;;;;;;;;;;5055373;28;20036;-68
2022/05/18 05:13:55;;;;;;;44.83;25.60;;;;;;;;;;5055076;28;20102;-68
2022/05/18 05:16:21;;;;;;;53.38;26.60;;;;;;;;;;5057625;28;20029;-68
2022/05/18 05:18:47;;;;;;;63.25;27.15;;;;;;;;;;5057736;28;20094;-68
2022/05/18 05:21:13;;;;;;;51.80;24.80;;;;;;;;;;5056035;28;20033;-72
2022/05/18 05:23:39;;;;;;;52.00;23.45;;;;;;;;;;5055919;28;20061;-67
2022/05/18 05:26:06;;;;;;;52.25;23.30;;;;;;;;;;5056017;28;20149;-67
2022/05/18 05:28:32;;;;;;;50.45;22.70;;;;;;;;;;5056436;28;20522;-68
2022/05/18 05:31:02;;;;;;;51.50;23.73;;;;;;;;;;5056013;28;20511;-72
2022/05/18 05:33:28;;;;;;;72.03;29.83;;;;;;;;;;5056347;28;20429;-69
2022/05/18 05:35:54;;;;;;;245.05;78.53;;;;;;;;;;5055561;28;22009;-69
2022/05/18 05:38:20;;;;;;;502.13;153.27;;;;;;;;;;5057561;28;20554;-69
2022/05/18 05:40:46;;;;;;;407.60;121.25;;;;;;;;;;5056264;28;20045;-70
2022/05/18 05:43:13;;;;;;;212.55;67.22;;;;;;;;;;5055589;28;20033;-67
2022/05/18 05:45:39;;;;;;;255.40;72.40;;;;;;;;;;5056282;28;20036;-67
2022/05/18 05:48:07;;;;;;;235.82;70.22;;;;;;;;;;5040373;28;20070;-67
2022/05/18 05:50:33;;;;;;;149.35;43.45;;;;;;;;;;5053419;28;20059;-67
2022/05/18 05:52:59;;;;;;;107.45;34.53;;;;;;;;;;5053445;28;20493;-68
2022/05/18 05:55:26;;;;;;;55.60;23.65;;;;;;;;;;5055142;28;20382;-68
2022/05/18 05:57:54;;;;;;;54.25;26.98;;;;;;;;;;5055099;28;20020;-68
2022/05/18 06:00:20;;;;;;;56.35;27.05;;;;;;;;;;5055366;28;20147;-68
2022/05/18 06:02:46;;;;;;;49.78;24.85;;;;;;;;;;5053811;28;20037;-68
2022/05/18 06:05:13;;;;;;;58.55;27.35;;;;;;;;;;5054102;28;20037;-69
2022/05/18 06:07:39;;;;;;;51.20;26.23;;;;;;;;;;5054251;28;20039;-68
2022/05/18 06:10:06;;;;;;;48.75;25.92;;;;;;;;;;5053858;28;20037;-68
2022/05/18 06:12:32;;;;;;;43.33;23.40;;;;;;;;;;5053487;28;20029;-68
2022/05/18 06:14:59;;;;;;;58.50;23.65;;;;;;;;;;5053798;28;20151;-68
2022/05/18 06:17:25;;;;;;;47.75;24.05;;;;;;;;;;5052284;28;20424;-69
2022/05/18 06:19:52;;;;;;;57.47;23.38;;;;;;;;;;5052448;28;20040;-69
2022/05/18 06:22:18;;;;;;;47.88;23.08;;;;;;;;;;5049961;28;20033;-69
2022/05/18 06:24:47;;;;;;;45.03;22.30;;;;;;;;;;5054871;28;20021;-68
2022/05/18 06:27:14;;;;;;;45.70;23.45;;;;;;;;;;5055286;28;20033;-68
2022/05/18 06:29:40;;;;;;;49.95;22.48;;;;;;;;;;5052879;28;20039;-69
2022/05/18 06:32:06;;;;;;;42.85;22.08;;;;;;;;;;5044811;28;20042;-69
2022/05/18 06:34:32;;;;;;;43.38;22.42;;;;;;;;;;5045218;28;20033;-69
2022/05/18 06:36:59;;;;;;;48.17;22.15;;;;;;;;;;5046802;28;20026;-69
2022/05/18 06:39:25;;;;;;;52.00;23.25;;;;;;;;;;5044979;28;20031;-69
2022/05/18 06:41:51;;;;;;;46.22;22.30;;;;;;;;;;5045666;28;20084;-70
2022/05/18 06:44:18;;;;;;;53.05;22.70;;;;;;;;;;5054260;28;20048;-69
2022/05/18 06:46:44;;;;;;;50.10;22.77;;;;;;;;;;5057162;28;20017;-69
2022/05/18 06:49:12;;;;;;;39.72;20.35;;;;;;;;;;5050682;28;20064;-69
2022/05/18 06:51:40;;;;;;;46.90;20.75;;;;;;;;;;5044910;28;20024;-69
2022/05/18 06:54:06;;;;;;;46.90;21.70;;;;;;;;;;5046057;28;20084;-69
2022/05/18 06:56:33;;;;;;;42.13;20.70;;;;;;;;;;5044765;28;20044;-69
2022/05/18 06:59:00;;;;;;;44.55;21.08;;;;;;;;;;5049300;28;20045;-69
2022/05/18 07:01:28;;;;;;;46.00;20.25;;;;;;;;;;5043269;28;20041;-70
2022/05/18 07:03:54;;;;;;;46.95;20.88;;;;;;;;;;5043643;28;20086;-69
2022/05/18 07:06:22;;;;;;;44.83;20.23;;;;;;;;;;5043076;28;20025;-69
2022/05/18 07:08:51;;;;;;;39.30;20.17;;;;;;;;;;5046236;28;20129;-69
2022/05/18 07:11:17;;;;;;;46.42;22.00;;;;;;;;;;5046713;28;20533;-69
2022/05/18 07:13:43;;;;;;;49.65;21.17;;;;;;;;;;5050604;28;20053;-69
2022/05/18 07:16:10;;;;;;;47.47;21.23;;;;;;;;;;5055583;28;20033;-68
2022/05/18 07:18:36;;;;;;;43.85;21.75;;;;;;;;;;5044115;28;20029;-70
2022/05/18 07:21:03;;;;;;;48.78;21.27;;;;;;;;;;5042987;28;20131;-69
2022/05/18 07:23:30;;;;;;;41.10;17.80;;;;;;;;;;5046953;28;20461;-70
2022/05/18 07:25:57;;;;;;;39.08;17.38;;;;;;;;;;5042965;28;20338;-70
2022/05/18 07:28:24;;;;;;;39.60;17.55;;;;;;;;;;5044003;28;20029;-70
2022/05/18 07:30:50;;;;;;;41.90;17.40;;;;;;;;;;5044068;28;20025;-70
2022/05/18 07:33:17;;;;;;;28.98;15.55;;;;;;;;;;5045097;28;20402;-70
2022/05/18 07:35:43;;;;;;;40.63;15.93;;;;;;;;;;5045670;28;20025;-70
2022/05/18 07:38:10;;;;;;;36.13;15.10;;;;;;;;;;5047590;28;20028;-70
2022/05/18 07:40:36;;;;;;;26.77;15.05;;;;;;;;;;5051491;28;20045;-70
2022/05/18 07:43:02;;;;;;;28.13;14.20;;;;;;;;;;5053534;28;20113;-69
2022/05/18 07:45:29;;;;;;;37.08;13.23;;;;;;;;;;5054340;28;20446;-71
2022/05/18 07:47:55;;;;;;;30.80;13.70;;;;;;;;;;5052814;28;20099;-70
2022/05/18 07:50:22;;;;;;;29.92;13.82;;;;;;;;;;5052584;28;20031;-71
2022/05/18 07:52:48;;;;;;;31.15;13.40;;;;;;;;;;5061802;22;20597;-70
2022/05/18 07:55:15;;;;;;;26.50;13.20;;;;;;;;;;5052441;28;20036;-71
2022/05/18 07:57:42;;;;;;;30.08;13.18;;;;;;;;;;5051210;28;20032;-70
2022/05/18 08:00:15;;;;;;;26.90;12.55;;;;;;;;;;5052360;28;20510;-71
2022/05/18 08:02:41;;;;;;;26.90;12.30;;;;;;;;;;5046862;28;20037;-70
2022/05/18 08:05:07;;;;;;;25.20;10.93;;;;;;;;;;5052596;28;20047;-70
2022/05/18 08:07:34;;;;;;;27.60;11.40;;;;;;;;;;5052212;28;20036;-70
2022/05/18 08:15:31;;;;;;;21.98;9.43;;;;;;;;;;5051530;28;20043;-71
2022/05/18 08:17:57;;;;;;;28.67;11.02;;;;;;;;;;5052550;28;20096;-71
2022/05/18 08:20:24;;;;;;;22.55;9.90;;;;;;;;;;5050066;28;20505;-72
2022/05/18 08:22:51;;;;;;;23.40;9.10;;;;;;;;;;5052013;28;20204;-75
2022/05/18 08:25:17;;;;;;;25.77;8.68;;;;;;;;;;5053315;28;20033;-75
2022/05/18 08:27:45;;;;;;;19.60;8.15;;;;;;;;;;5052180;28;20025;-75
2022/05/18 08:30:13;;;;;;;17.73;9.05;;;;;;;;;;5051678;28;20111;-75
2022/05/18 08:32:39;;;;;;;17.85;8.57;;;;;;;;;;5051135;28;20029;-76
2022/05/18 08:35:06;;;;;;;20.23;8.80;;;;;;;;;;5050931;28;20552;-75
2022/05/18 08:37:37;;;;;;;18.85;8.23;;;;;;;;;;5053936;28;20460;-75
2022/05/18 08:40:03;;;;;;;21.35;8.15;;;;;;;;;;5055191;28;20029;-75
2022/05/18 08:42:29;;;;;;;15.55;7.40;;;;;;;;;;5055889;28;20044;-75
2022/05/18 08:44:56;;;;;;;19.35;7.38;;;;;;;;;;5061740;22;20060;-68
2022/05/18 08:47:30;;;;;;;23.17;7.93;;;;;;;;;;5053305;28;20040;-68
2022/05/18 08:49:58;;;;;;;20.08;8.13;;;;;;;;;;5055424;28;20389;-68
2022/05/18 08:52:24;;;;;;;21.88;8.10;;;;;;;;;;5053000;28;20040;-68
2022/05/18 08:54:58;;;;;;;20.23;7.82;;;;;;;;;;5053641;28;20100;-68
2022/05/18 08:57:24;;;;;;;;;;;;;;;;;;5056573;28;20095;-68
2022/05/18 08:59:57;;;;;;;21.10;7.90;;;;;;;;;;5055631;28;20361;-68
2022/05/18 09:02:29;;;;;;;20.92;8.70;;;;;;;;;;5053085;28;20045;-68
2022/05/18 09:04:59;;;;;;;24.80;8.40;;;;;;;;;;5057632;28;20033;-68
2022/05/18 09:07:27;;;;;;;30.88;13.95;;;;;;;;;;5056095;28;20401;-68
2022/05/18 09:10:14;;;;;;;34.90;15.02;;;;;;;;;;5057312;28;20032;-68
2022/05/18 09:12:44;;;;;;;32.60;14.70;;;;;;;;;;5055784;28;20036;-68
2022/05/18 09:15:13;;;;;;;33.97;15.45;;;;;;;;;;5039751;28;20083;-68
2022/05/18 09:17:48;;;;;;;37.00;14.77;;;;;;;;;;5053567;28;20033;-68
2022/05/18 09:20:33;;;;;;;30.60;14.85;;;;;;;;;;5056240;28;20044;-68
2022/05/18 09:23:10;;;;;;;27.33;14.68;;;;;;;;;;5044671;28;20025;-72
2022/05/18 09:25:36;;;;;;;28.13;13.10;;;;;;;;;;5053960;28;20035;-72
2022/05/18 09:28:05;;;;;;;31.30;13.40;;;;;;;;;;5054168;28;20082;-72
2022/05/18 09:30:39;;;;;;;28.88;14.32;;;;;;;;;;5056617;28;20033;-72
2022/05/18 09:33:07;;;;;;;38.08;14.50;;;;;;;;;;5056606;28;20036;-72
2022/05/18 09:36:05;;;;;;;31.38;14.32;;;;;;;;;;5055223;28;20558;-70
2022/05/18 09:38:37;;;;;;;27.60;14.45;;;;;;;;;;5012674;28;20133;-70
2022/05/18 09:41:08;;;;;;;32.95;14.48;;;;;;;;;;5008782;28;20066;-70
2022/05/18 09:43:53;;;;;;;28.33;13.70;;;;;;;;;;5008530;28;20030;-70
2022/05/18 09:46:21;;;;;;;27.83;12.93;;;;;;;;;;5009481;28;20042;-70
2022/05/18 09:48:53;;;;;;;39.05;12.93;;;;;;;;;;5007881;28;20046;-70
2022/05/18 09:51:20;;;;;;;34.03;12.70;;;;;;;;;;5007252;28;20105;-70
2022/05/18 09:53:46;;;;;;;25.70;12.18;;;;;;;;;;5010941;28;20030;-69
2022/05/18 09:56:16;;;;;;;34.88;13.40;;;;;;;;;;5010129;28;20180;-70
2022/05/18 09:58:45;;;;;;;32.25;13.07;;;;;;;;;;5008718;28;20034;-70
2022/05/18 10:09:37;;;;;;;27.10;13.10;;;;;;;;;;5008420;28;20471;-68
2022/05/18 10:12:13;;;;;;;28.13;13.52;;;;;;;;;;5008885;28;20038;-69
2022/05/18 10:14:40;;;;;;;30.02;13.50;;;;;;;;;;5042492;28;20056;-69
2022/05/18 10:17:12;;;;;;;28.80;13.82;;;;;;;;;;5056372;28;20028;-70
2022/05/18 10:19:50;;;;;;;31.45;15.35;;;;;;;;;;5054753;28;20032;-70
2022/05/18 10:22:25;;;;;;;30.27;14.48;;;;;;;;;;5042125;28;20163;-70
2022/05/18 10:24:53;;;;;;;30.00;14.48;;;;;;;;;;5054671;28;20025;-69
2022/05/18 10:27:23;;;;;;;29.15;14.35;;;;;;;;;;5056288;28;20024;-69
2022/05/18 10:30:08;;;;;;;30.83;15.13;;;;;;;;;;5052151;28;20923;-69
2022/05/18 10:32:35;;;;;;;32.10;15.10;;;;;;;;;;5050460;28;20045;-69
2022/05/18 10:35:01;;;;;;;29.10;15.45;;;;;;;;;;5050509;28;20388;-69
2022/05/18 10:37:32;;;;;;;38.35;14.48;;;;;;;;;;5049940;28;20025;-69
2022/05/18 10:40:18;;;;;;;33.47;15.00;;;;;;;;;;5050228;28;20062;-69
2022/05/18 10:42:51;;;;;;;36.72;14.95;;;;;;;;;;5049665;28;20480;-69
2022/05/18 10:45:35;;;;;;;31.80;13.93;;;;;;;;;;5048657;28;20048;-69
2022/05/18 10:48:06;;;;;;;32.85;14.88;;;;;;;;;;5050718;28;20056;-70
2022/05/18 10:50:34;;;;;;;29.13;13.60;;;;;;;;;;5050276;28;20363;-69
2022/05/18 10:53:20;;;;;;;32.65;15.07;;;;;;;;;;5072960;22;20097;-74
2022/05/18 10:55:56;;;;;;;33.05;13.48;;;;;;;;;;5045274;28;20033;-71
2022/05/18 10:58:26;;;;;;;33.03;14.50;;;;;;;;;;5052831;28;20048;-71
2022/05/18 11:00:58;;;;;;;30.65;13.60;;;;;;;;;;5053609;28;20217;-71
2022/05/18 11:03:24;;;;;;;32.58;13.35;;;;;;;;;;5053551;28;20025;-70
2022/05/18 11:05:52;;;;;;;27.95;13.98;;;;;;;;;;5052227;28;20040;-70
2022/05/18 11:08:21;;;;;;;28.58;14.13;;;;;;;;;;5054789;28;20025;-71
2022/05/18 11:10:49;;;;;;;30.05;13.48;;;;;;;;;;5052828;28;20555;-72
2022/05/18 11:13:30;;;;;;;37.38;14.50;;;;;;;;;;5053461;28;20024;-70
2022/05/18 11:16:02;;;;;;;36.67;17.10;;;;;;;;;;5051552;28;20021;-70
2022/05/18 11:18:37;;;;;;;37.17;15.18;;;;;;;;;;5052399;28;20142;-70
2022/05/18 11:21:20;;;;;;;32.78;15.60;;;;;;;;;;5053014;28;20558;-70
2022/05/18 11:23:50;;;;;;;37.70;15.35;;;;;;;;;;5047453;28;20376;-70
2022/05/18 11:26:22;;;;;;;32.55;15.77;;;;;;;;;;5052925;28;20028;-71
2022/05/18 11:29:07;;;;;;;36.47;15.93;;;;;;;;;;5052462;28;20032;-74
2022/05/18 11:31:55;;;;;;;30.83;15.00;;;;;;;;;;5053777;28;20025;-72
2022/05/18 11:34:33;;;;;;;27.10;16.33;;;;;;;;;;5052672;28;20036;-70
2022/05/18 11:37:12;;;;;;;31.35;15.52;;;;;;;;;;5052709;28;20033;-69
2022/05/18 11:39:38;;;;;;;33.25;15.80;;;;;;;;;;5053601;28;20028;-70
2022/05/18 11:42:19;;;;;;;34.20;15.43;;;;;;;;;;5052392;28;20532;-69
2022/05/18 11:44:52;;;;;;;31.13;15.68;;;;;;;;;;5044963;28;20145;-69
2022/05/18 11:47:18;;;;;;;;;;;;;;;;;;5053266;28;20056;-69
2022/05/18 11:50:05;;;;;;;36.10;15.55;;;;;;;;;;5052946;28;19913;-69
2022/05/18 11:52:34;;;;;;;36.42;15.57;;;;;;;;;;5050141;28;20040;-69
2022/05/18 11:55:10;;;;;;;33.58;14.85;;;;;;;;;;5050467;28;20033;-69
2022/05/18 11:57:45;;;;;;;30.38;15.05;;;;;;;;;;5050985;28;20029;-70
2022/05/18 12:00:19;;;;;;;32.17;15.93;;;;;;;;;;5043314;28;20037;-70
2022/05/18 12:03:13;;;;;;;38.17;15.65;;;;;;;;;;5046505;28;20028;-70
2022/05/18 12:06:02;;;;;;;31.23;14.60;;;;;;;;;;5036731;28;20086;-70
2022/05/18 12:08:31;;;;;;;32.88;14.50;;;;;;;;;;5046495;28;20025;-70
2022/05/18 12:11:05;;;;;;;28.75;13.57;;;;;;;;;;5048776;28;20029;-70
2022/05/18 12:13:40;;;;;;;36.13;14.45;;;;;;;;;;5050338;28;20382;-70
2022/05/18 12:16:06;;;;;;;43.50;14.30;;;;;;;;;;5051618;28;20429;-70
2022/05/18 12:18:41;;;;;;;34.40;13.38;;;;;;;;;;5047754;28;20025;-70
2022/05/18 12:21:15;;;;;;;36.67;13.82;;;;;;;;;;5046713;28;20416;-70
2022/05/18 12:23:47;;;;;;;37.88;15.10;;;;;;;;;;5042479;28;20225;-70
2022/05/18 12:26:14;;;;;;;29.20;14.10;;;;;;;;;;5048782;28;20106;-70
2022/05/18 12:28:41;;;;;;;29.35;13.73;;;;;;;;;;5048514;28;20086;-76
2022/05/18 12:31:07;;;;;;;29.35;13.70;;;;;;;;;;5047212;28;20021;-77
2022/05/18 12:33:34;;;;;;;30.73;13.32;;;;;;;;;;5049526;28;20033;-71
2022/05/18 12:36:03;;;;;;;33.90;13.45;;;;;;;;;;5050911;28;20037;-71
2022/05/18 12:38:55;;;;;;;29.08;12.90;;;;;;;;;;5051208;28;20100;-71
2022/05/18 12:41:26;;;;;;;29.70;13.35;;;;;;;;;;5047403;28;20086;-73
2022/05/18 12:44:00;;;;;;;35.80;12.32;;;;;;;;;;5050272;28;20029;-73
2022/05/18 12:46:33;;;;;;;32.78;13.00;;;;;;;;;;5046069;28;20033;-72
2022/05/18 12:48:59;;;;;;;;;;;;;;;;;;5051909;28;20490;-72
2022/05/18 12:51:31;;;;;;;30.50;12.73;;;;;;;;;;5050759;28;20066;-72
2022/05/18 12:54:23;;;;;;;34.83;13.23;;;;;;;;;;5050943;28;20132;-73
2022/05/18 12:57:05;;;;;;;35.05;13.05;;;;;;;;;;5047005;28;20032;-73
2022/05/18 12:59:46;;;;;;;27.25;12.10;;;;;;;;;;5049414;28;20032;-72
2022/05/18 13:02:31;;;;;;;29.83;12.63;;;;;;;;;;5052221;28;20513;-72
2022/05/18 13:04:58;;;;;;;34.53;12.77;;;;;;;;;;5051933;28;20021;-72
2022/05/18 13:07:31;;;;;;;29.42;11.30;;;;;;;;;;5049665;28;20029;-73
2022/05/18 13:10:06;;;;;;;31.13;12.00;;;;;;;;;;5050583;28;20167;-72
2022/05/18 13:12:45;;;;;;;24.92;11.35;;;;;;;;;;5051651;28;20021;-73
2022/05/18 13:15:21;;;;;;;27.45;12.43;;;;;;;;;;5036307;28;20021;-73
2022/05/18 13:17:49;;;;;;;29.08;11.45;;;;;;;;;;5050494;28;20480;-73
2022/05/18 13:20:36;;;;;;;30.25;11.70;;;;;;;;;;5058963;22;20060;-68
2022/05/18 13:23:05;;;;;;;18.80;10.38;;;;;;;;;;5042701;28;20036;-69
2022/05/18 13:25:36;;;;;;;25.02;10.35;;;;;;;;;;5053313;28;20036;-71
2022/05/18 13:28:03;;;;;;;29.85;11.82;;;;;;;;;;5049357;28;20128;-68
2022/05/18 13:30:47;;;;;;;31.17;11.82;;;;;;;;;;5050100;28;20118;-68
2022/05/18 13:33:15;;;;;;;23.27;9.82;;;;;;;;;;5035512;28;20033;-69
2022/05/18 13:35:41;;;;;;;31.02;11.10;;;;;;;;;;5049185;28;20558;-68
2022/05/18 13:38:17;;;;;;;26.48;12.13;;;;;;;;;;5048925;28;20045;-69
2022/05/18 13:40:46;;;;;;;26.40;10.70;;;;;;;;;;5049729;28;20098;-68
2022/05/18 13:43:14;;;;;;;30.02;12.15;;;;;;;;;;5051690;28;20037;-68
2022/05/18 13:45:44;;;;;;;31.48;12.68;;;;;;;;;;5050735;28;20022;-71
2022/05/18 13:48:11;;;;;;;30.33;12.15;;;;;;;;;;5035012;28;20027;-69
2022/05/18 13:50:37;;;;;;;26.33;13.60;;;;;;;;;;5044851;28;20021;-69
2022/05/18 13:53:07;;;;;;;30.75;13.30;;;;;;;;;;5050333;28;20036;-69
2022/05/18 13:55:40;;;;;;;31.45;14.32;;;;;;;;;;5049619;28;20029;-72
2022/05/18 13:58:07;;;;;;;34.63;14.70;;;;;;;;;;5052081;28;20033;-71
2022/05/18 14:00:57;;;;;;;33.58;15.05;;;;;;;;;;5053653;28;20405;-71
2022/05/18 14:03:25;;;;;;;33.53;13.95;;;;;;;;;;5006842;28;20429;-71
2022/05/18 14:05:54;;;;;;;30.70;14.10;;;;;;;;;;4993909;28;20035;-71
2022/05/18 14:08:33;;;;;;;29.10;13.43;;;;;;;;;;4994492;28;20034;-71
2022/05/18 14:11:00;;;;;;;23.75;11.35;;;;;;;;;;4996060;28;20387;-72
2022/05/18 14:13:26;;;;;;;28.20;11.55;;;;;;;;;;4996779;28;20136;-72
2022/05/18 14:15:53;;;;;;;29.27;12.00;;;;;;;;;;4989011;28;20479;-72
2022/05/18 14:18:22;;;;;;;21.83;11.63;;;;;;;;;;4993449;28;20041;-73
2022/05/18 14:20:49;;;;;;;25.10;10.77;;;;;;;;;;4991759;28;20227;-71
2022/05/18 14:23:27;;;;;;;28.15;10.68;;;;;;;;;;4978946;28;20144;-72
2022/05/18 14:25:54;;;;;;;25.30;11.02;;;;;;;;;;4994640;28;20053;-70
2022/05/18 14:28:25;;;;;;;37.58;11.32;;;;;;;;;;4995709;28;20046;-70
2022/05/18 14:30:52;;;;;;;30.52;10.60;;;;;;;;;;4978462;28;20516;-70
2022/05/18 14:33:36;;;;;;;24.10;11.10;;;;;;;;;;4985348;28;20565;-70
2022/05/18 14:36:06;;;;;;;27.40;11.77;;;;;;;;;;4990639;28;20038;-69
2022/05/18 14:38:38;;;;;;;30.55;11.50;;;;;;;;;;4986791;28;20040;-70
2022/05/18 14:41:09;;;;;;;29.00;11.10;;;;;;;;;;5033517;28;20053;-69
2022/05/18 14:43:35;;;;;;;28.60;11.13;;;;;;;;;;5045478;28;20577;-71
2022/05/18 14:46:04;;;;;;;26.15;10.45;;;;;;;;;;5045948;28;20477;-69
2022/05/18 14:48:35;;;;;;;22.33;10.30;;;;;;;;;;5046378;28;20056;-69